Time;durP1;ratioP1;P1;durP2;ratioP2;P2;SDS_P1;SDS_P2;PMS_P1;PMS_P2;Temp;Humidity;BMP_temperature;BMP_pressure;BME280_temperature;BME280_humidity;BME280_pressure;Samples;Min_cycle;Max_cycle;Signal;HPM_P1;HPM_P2
2022/09/28 00:00:22;;;;;;;7.10;5.15;;;;;;;-140.66;100.00;55571.53;5053924;28;20457;-74
2022/09/28 00:03:08;;;;;;;7.05;5.18;;;;;;;-140.66;100.00;55571.53;5053912;28;20029;-74
2022/09/28 00:06:00;;;;;;;7.07;5.32;;;;;;;-140.66;100.00;55571.53;5039144;28;20029;-74
2022/09/28 00:08:46;;;;;;;6.32;5.30;;;;;;;-140.66;100.00;55571.53;5053745;28;20032;-74
2022/09/28 00:11:32;;;;;;;6.72;5.00;;;;;;;-140.66;100.00;55571.53;5039160;28;20024;-74
2022/09/28 00:14:18;;;;;;;6.20;5.38;;;;;;;-140.66;100.00;55571.53;5054096;28;20032;-75
2022/09/28 00:17:03;;;;;;;8.65;5.20;;;;;;;-140.66;100.00;55571.53;5053747;28;20449;-74
2022/09/28 00:19:49;;;;;;;7.70;5.80;;;;;;;-140.66;100.00;55571.53;5053963;28;20029;-75
2022/09/28 00:22:35;;;;;;;7.82;5.82;;;;;;;-140.66;100.00;55571.53;5054369;28;20463;-74
2022/09/28 00:25:20;;;;;;;6.20;5.55;;;;;;;-140.66;100.00;55571.53;5038343;28;20408;-75
2022/09/28 00:28:06;;;;;;;6.78;5.75;;;;;;;-140.66;100.00;55571.53;5053939;28;20035;-75
2022/09/28 00:30:55;;;;;;;7.82;6.15;;;;;;;-140.66;100.00;55571.53;5053684;28;20029;-75
2022/09/28 00:33:41;;;;;;;6.43;5.82;;;;;;;-140.66;100.00;55571.53;5038464;28;20036;-75
2022/09/28 00:36:29;;;;;;;6.50;5.40;;;;;;;-140.66;100.00;55571.53;5038541;28;20033;-75
2022/09/28 00:39:15;;;;;;;7.13;5.82;;;;;;;-140.66;100.00;55571.53;5053635;28;20040;-75
2022/09/28 00:42:02;;;;;;;7.53;5.68;;;;;;;-140.66;100.00;55571.53;5054060;28;20029;-74
2022/09/28 00:44:48;;;;;;;7.00;5.75;;;;;;;-140.66;100.00;55571.53;5038848;28;20025;-75
2022/09/28 00:47:44;;;;;;;7.32;5.95;;;;;;;-140.66;100.00;55571.53;5056906;28;20418;-74
2022/09/28 00:50:36;;;;;;;6.43;5.60;;;;;;;-140.66;100.00;55571.53;5043769;28;20029;-75
2022/09/28 00:53:26;;;;;;;7.00;5.88;;;;;;;-140.66;100.00;55571.53;5057042;28;20032;-74
2022/09/28 00:56:18;;;;;;;7.28;6.05;;;;;;;-140.66;100.00;55571.53;5057180;28;20358;-75
2022/09/28 00:59:03;;;;;;;7.78;6.07;;;;;;;-140.66;100.00;55571.53;5057382;28;20075;-74
2022/09/28 01:01:50;;;;;;;7.43;6.00;;;;;;;-140.66;100.00;55571.53;5056861;28;20036;-75
2022/09/28 01:04:36;;;;;;;7.45;6.30;;;;;;;-140.66;100.00;55571.53;5041812;28;20063;-75
2022/09/28 01:07:22;;;;;;;10.18;6.50;;;;;;;-140.66;100.00;55571.53;5057173;28;20071;-77
2022/09/28 01:10:08;;;;;;;7.15;6.28;;;;;;;-140.66;100.00;55571.53;5042230;28;20044;-75
2022/09/28 01:12:54;;;;;;;7.70;6.25;;;;;;;-140.66;100.00;55571.53;5057276;28;20448;-75
2022/09/28 01:16:06;;;;;;;6.38;5.78;;;;;;;-140.66;100.00;55571.53;5041625;28;20037;-76
2022/09/28 01:19:11;;;;;;;7.00;6.18;;;;;;;-140.66;100.00;55571.53;5041996;28;20036;-75
2022/09/28 01:22:28;;;;;;;6.30;5.70;;;;;;;-140.66;100.00;55571.53;5056207;28;20028;-76
2022/09/28 01:25:26;;;;;;;9.00;6.18;;;;;;;-140.66;100.00;55571.53;5056591;28;20071;-76
2022/09/28 01:28:18;;;;;;;8.32;6.25;;;;;;;-140.66;100.00;55571.53;5056848;28;20481;-75
2022/09/28 01:31:15;;;;;;;7.20;6.22;;;;;;;-140.66;100.00;55571.53;5056450;28;20075;-75
2022/09/28 01:34:12;;;;;;;6.93;6.22;;;;;;;-140.66;100.00;55571.53;5056165;28;20465;-76
2022/09/28 01:37:03;;;;;;;7.53;6.45;;;;;;;-140.66;100.00;55571.53;5056302;28;20025;-76
2022/09/28 01:39:52;;;;;;;9.30;7.10;;;;;;;-140.66;100.00;55571.53;5056658;28;20032;-74
2022/09/28 01:42:40;;;;;;;9.00;6.78;;;;;;;-140.66;100.00;55571.53;5055604;28;20441;-76
2022/09/28 01:45:31;;;;;;;7.75;6.95;;;;;;;-140.66;100.00;55571.53;5056136;28;20029;-75
2022/09/28 01:48:23;;;;;;;11.57;7.38;;;;;;;-140.66;100.00;55571.53;5056324;28;20028;-75
2022/09/28 01:51:38;;;;;;;9.15;7.18;;;;;;;-140.66;100.00;55571.53;5056153;28;20457;-75
2022/09/28 01:54:47;;;;;;;6.75;5.97;;;;;;;-140.66;100.00;55571.53;5056699;28;20028;-75
2022/09/28 01:57:39;;;;;;;6.65;5.78;;;;;;;-140.66;100.00;55571.53;5055379;28;20041;-75
2022/09/28 02:00:26;;;;;;;8.65;6.88;;;;;;;-140.66;100.00;55571.53;5056414;28;20048;-75
2022/09/28 02:03:21;;;;;;;7.53;6.20;;;;;;;-140.66;100.00;55571.53;5056721;28;20036;-75
2022/09/28 02:06:21;;;;;;;8.57;6.10;;;;;;;-140.66;100.00;55571.53;5056849;28;20071;-75
2022/09/28 02:09:17;;;;;;;7.75;6.03;;;;;;;-140.66;100.00;55571.53;5056227;28;20346;-75
2022/09/28 02:12:10;;;;;;;7.80;5.93;;;;;;;-140.66;100.00;55571.53;5056812;28;20099;-74
2022/09/28 02:15:32;;;;;;;9.68;6.22;;;;;;;-140.66;100.00;55571.53;5056157;28;20031;-75
2022/09/28 02:18:18;;;;;;;8.30;6.60;;;;;;;-140.66;100.00;55571.53;5051369;28;20457;-74
2022/09/28 02:21:21;;;;;;;9.38;6.95;;;;;;;-140.66;100.00;55571.53;5055990;28;20476;-75
2022/09/28 02:24:16;;;;;;;10.48;7.95;;;;;;;-140.66;100.00;55571.53;5055959;28;20112;-75
2022/09/28 02:27:16;;;;;;;8.82;7.68;;;;;;;-140.66;100.00;55571.53;5055998;28;20087;-75
2022/09/28 02:30:04;;;;;;;13.20;8.65;;;;;;;-140.66;100.00;55571.53;5054922;28;20499;-74
2022/09/28 02:32:53;;;;;;;11.50;7.93;;;;;;;-140.66;100.00;55571.53;5055774;28;20319;-74
2022/09/28 02:35:40;;;;;;;9.80;8.48;;;;;;;-140.66;100.00;55571.53;5055115;28;20382;-76
2022/09/28 02:38:26;;;;;;;12.30;9.13;;;;;;;-140.66;100.00;55571.53;5055839;28;20364;-74
2022/09/28 02:41:41;;;;;;;11.05;8.75;;;;;;;-140.66;100.00;55571.53;5055514;28;20095;-75
2022/09/28 02:44:39;;;;;;;14.32;9.55;;;;;;;-140.66;100.00;55571.53;5010735;28;20037;-75
2022/09/28 02:47:43;;;;;;;13.50;9.00;;;;;;;-140.66;100.00;55571.53;5055747;28;20432;-74
2022/09/28 02:50:53;;;;;;;11.45;8.65;;;;;;;-140.66;100.00;55571.53;5040484;28;20092;-74
2022/09/28 02:53:57;;;;;;;12.57;9.60;;;;;;;-140.66;100.00;55571.53;5041141;28;20033;-76
2022/09/28 02:57:02;;;;;;;13.45;9.60;;;;;;;-140.66;100.00;55571.53;5053997;28;20469;-74
2022/09/28 03:00:10;;;;;;;10.90;8.73;;;;;;;-140.66;100.00;55571.53;5054873;28;20029;-74
2022/09/28 03:03:11;;;;;;;10.52;8.93;;;;;;;-140.66;100.00;55571.53;5054644;28;20028;-75
2022/09/28 03:06:10;;;;;;;11.23;9.25;;;;;;;-140.66;100.00;55571.53;5054983;28;20033;-73
2022/09/28 03:09:13;;;;;;;11.90;9.48;;;;;;;-140.66;100.00;55571.53;5055378;28;20029;-75
2022/09/28 03:12:06;;;;;;;12.55;8.65;;;;;;;-140.66;100.00;55571.53;5055240;28;20062;-74
2022/09/28 03:15:18;;;;;;;10.57;8.80;;;;;;;-140.66;100.00;55571.53;5055219;28;20017;-75
2022/09/28 03:18:04;;;;;;;14.23;9.93;;;;;;;-140.66;100.00;55571.53;5055263;28;20087;-75
2022/09/28 03:20:50;;;;;;;12.43;9.88;;;;;;;-140.66;100.00;55571.53;5056972;28;20029;-75
2022/09/28 03:23:36;;;;;;;10.75;8.77;;;;;;;-140.66;100.00;55571.53;5061762;28;20446;-73
2022/09/28 03:26:22;;;;;;;11.18;9.00;;;;;;;-140.66;100.00;55571.53;5061011;28;20025;-74
2022/09/28 03:29:07;;;;;;;12.40;9.35;;;;;;;-140.66;100.00;55571.53;5059380;28;20024;-73
2022/09/28 03:31:53;;;;;;;14.23;9.98;;;;;;;-140.66;100.00;55571.53;5056283;28;20025;-76
2022/09/28 03:34:39;;;;;;;12.95;9.40;;;;;;;-140.66;100.00;55571.53;5054558;28;20024;-75
2022/09/28 03:37:26;;;;;;;12.55;10.55;;;;;;;-140.66;100.00;55571.53;5054841;28;20037;-75
2022/09/28 03:40:12;;;;;;;14.57;10.38;;;;;;;-140.66;100.00;55571.53;5040807;28;20036;-76
2022/09/28 03:42:59;;;;;;;14.60;10.23;;;;;;;-140.66;100.00;55571.53;5054281;28;20473;-75
2022/09/28 03:45:58;;;;;;;12.48;10.05;;;;;;;-140.66;100.00;55571.53;5054699;28;20495;-75
2022/09/28 03:48:44;;;;;;;16.90;10.85;;;;;;;-140.66;100.00;55571.53;5055312;28;20056;-75
2022/09/28 03:51:29;;;;;;;12.75;9.73;;;;;;;-140.66;100.00;55571.53;5054837;28;20475;-75
2022/09/28 03:54:15;;;;;;;13.98;10.82;;;;;;;-140.66;100.00;55571.53;5054970;28;20044;-74
2022/09/28 03:57:01;;;;;;;14.38;11.15;;;;;;;-140.66;100.00;55571.53;5055328;28;20420;-74
2022/09/28 03:59:47;;;;;;;15.55;10.35;;;;;;;-140.66;100.00;55571.53;5053514;28;20096;-74
2022/09/28 04:02:33;;;;;;;13.02;10.40;;;;;;;-140.66;100.00;55571.53;5054332;28;20039;-77
2022/09/28 04:05:19;;;;;;;15.38;9.48;;;;;;;-140.66;100.00;55571.53;5054442;28;20028;-74
2022/09/28 04:08:04;;;;;;;11.93;9.55;;;;;;;-140.66;100.00;55571.53;5040441;28;20028;-73
2022/09/28 04:10:50;;;;;;;12.38;9.43;;;;;;;-140.66;100.00;55571.53;5056851;28;20025;-76
2022/09/28 04:13:37;;;;;;;13.20;9.82;;;;;;;-140.66;100.00;55571.53;5053907;28;20025;-75
2022/09/28 04:16:23;;;;;;;11.15;8.80;;;;;;;-140.66;100.00;55571.53;5054068;28;20115;-75
2022/09/28 04:19:08;;;;;;;11.15;9.23;;;;;;;-140.66;100.00;55571.53;5038837;28;20368;-74
2022/09/28 04:21:54;;;;;;;14.18;9.48;;;;;;;-140.66;100.00;55571.53;5056135;28;20131;-73
2022/09/28 04:24:42;;;;;;;10.23;8.32;;;;;;;-140.66;100.00;55571.53;5057621;28;20076;-73
2022/09/28 04:30:32;;;;;;;12.13;8.98;;;;;;;-140.66;100.00;55571.53;5057544;28;20033;-72
2022/09/28 04:33:18;;;;;;;11.88;9.05;;;;;;;-140.66;100.00;55571.53;5057793;28;20025;-72
2022/09/28 04:36:03;;;;;;;12.32;8.45;;;;;;;-140.66;100.00;55571.53;5029170;28;20033;-73
2022/09/28 04:38:52;;;;;;;11.23;8.45;;;;;;;-140.66;100.00;55571.53;5057840;28;20049;-73
2022/09/28 04:41:39;;;;;;;10.10;8.38;;;;;;;-140.66;100.00;55571.53;5057594;28;20376;-72
2022/09/28 04:44:25;;;;;;;11.52;8.70;;;;;;;-140.66;100.00;55571.53;5057218;28;20131;-73
2022/09/28 04:47:11;;;;;;;9.57;8.10;;;;;;;-140.66;100.00;55571.53;5057281;28;20492;-73
2022/09/28 04:49:56;;;;;;;13.82;9.18;;;;;;;-140.66;100.00;55571.53;5057645;28;20021;-72
2022/09/28 04:52:42;;;;;;;11.52;8.82;;;;;;;-140.66;100.00;55571.53;5057533;28;20024;-73
2022/09/28 04:55:31;;;;;;;12.02;8.40;;;;;;;-140.66;100.00;55571.53;5056950;28;20091;-73
2022/09/28 04:58:17;;;;;;;11.30;8.90;;;;;;;-140.66;100.00;55571.53;5057530;28;20121;-73
2022/09/28 05:01:12;;;;;;;10.90;8.38;;;;;;;-140.66;100.00;55571.53;5057651;28;20048;-73
2022/09/28 05:03:58;;;;;;;10.88;8.30;;;;;;;-140.66;100.00;55571.53;5057250;28;20445;-73
2022/09/28 05:06:43;;;;;;;10.95;9.25;;;;;;;-140.66;100.00;55571.53;5057087;28;20409;-72
2022/09/28 05:09:29;;;;;;;12.32;9.80;;;;;;;-140.66;100.00;55571.53;5056889;28;20024;-72
2022/09/28 05:12:15;;;;;;;11.88;9.30;;;;;;;-140.66;100.00;55571.53;5056756;28;20045;-73
2022/09/28 05:15:00;;;;;;;12.20;10.00;;;;;;;-140.66;100.00;55571.53;5056491;28;20465;-73
2022/09/28 05:17:46;;;;;;;14.63;9.60;;;;;;;-140.66;100.00;55571.53;5055968;28;20025;-72
2022/09/28 05:20:33;;;;;;;15.68;9.50;;;;;;;-140.66;100.00;55571.53;5056591;28;20021;-73
2022/09/28 05:23:19;;;;;;;14.10;10.10;;;;;;;-140.66;100.00;55571.53;5041554;28;20025;-73
2022/09/28 05:26:05;;;;;;;15.77;10.48;;;;;;;-140.66;100.00;55571.53;5056595;28;20029;-73
2022/09/28 05:28:51;;;;;;;11.45;9.70;;;;;;;-140.66;100.00;55571.53;5056505;28;20036;-72
2022/09/28 12:55:36;;;;;;;5.47;1.90;;;;;;;;;;5133098;27;20410;-74
2022/09/28 12:58:22;;;;;;;4.57;1.90;;;;;;;;;;5137156;27;20038;-74
2022/09/28 13:01:34;;;;;;;4.35;1.23;;;;;;;;;;5153513;27;20023;-74
2022/09/28 13:04:38;;;;;;;5.43;1.70;;;;;;;;;;5136962;27;20421;-75
2022/09/28 13:07:27;;;;;;;8.38;1.77;;;;;;;;;;5152333;27;20095;-75
2022/09/28 13:10:15;;;;;;;5.80;1.40;;;;;;;;;;5152011;27;20044;-75
2022/09/28 13:13:01;;;;;;;9.93;1.73;;;;;;;;;;5151936;27;20360;-75
2022/09/28 13:16:05;;;;;;;3.53;1.40;;;;;;;;;;5152098;27;20087;-74
2022/09/28 13:18:50;;;;;;;5.57;1.25;;;;;;;;;;5151705;27;20019;-76
2022/09/28 13:21:42;;;;;;;4.78;1.63;;;;;;;;;;5152558;27;20351;-77
2022/09/28 13:24:32;;;;;;;3.90;1.63;;;;;;;;;;5168695;27;20023;-79
2022/09/28 13:27:22;;;;;;;4.10;1.85;;;;;;;;;;5153145;27;20023;-78
2022/09/28 13:30:12;;;;;;;5.40;1.90;;;;;;;;;;5157246;27;20019;-77
2022/09/28 13:32:59;;;;;;;3.00;1.52;;;;;;;;;;5144229;27;20023;-76
2022/09/28 13:35:45;;;;;;;5.03;1.70;;;;;;;;;;5150826;27;20030;-78
2022/09/28 13:39:00;;;;;;;2.65;1.48;;;;;;;;;;5150835;27;20131;-77
2022/09/28 13:41:49;;;;;;;4.85;1.70;;;;;;;;;;5130400;27;20027;-77
2022/09/28 13:44:48;;;;;;;4.03;1.55;;;;;;;;;;5139448;27;20023;-77
2022/09/28 13:47:40;;;;;;;10.93;1.80;;;;;;;;;;5139034;27;20139;-77
2022/09/28 13:50:29;;;;;;;8.77;1.60;;;;;;;;;;5151781;27;20409;-77
2022/09/28 13:53:15;;;;;;;5.72;1.80;;;;;;;;;;5150979;27;20155;-77
2022/09/28 13:56:00;;;;;;;3.90;1.88;;;;;;;;;;5140089;27;20046;-78
2022/09/28 13:58:51;;;;;;;3.33;1.75;;;;;;;;;;5137322;27;20058;-77
2022/09/28 14:01:43;;;;;;;3.70;1.70;;;;;;;;;;5137729;27;20015;-77
2022/09/28 14:04:52;;;;;;;3.00;1.58;;;;;;;;;;5136685;27;20016;-76
2022/09/28 14:07:37;;;;;;;3.78;1.65;;;;;;;;;;5089887;27;20038;-78
2022/09/28 14:10:43;;;;;;;5.95;1.80;;;;;;;;;;5138242;27;20023;-78
2022/09/28 14:13:41;;;;;;;5.57;1.80;;;;;;;;;;5137418;27;20462;-78
2022/09/28 14:16:30;;;;;;;6.05;1.90;;;;;;;;;;5136673;27;20143;-75
2022/09/28 14:19:23;;;;;;;4.20;2.50;;;;;;;;;;5137372;27;20027;-77
2022/09/28 14:22:18;;;;;;;5.88;2.00;;;;;;;;;;5136801;27;20334;-78
2022/09/28 14:25:12;;;;;;;5.47;2.40;;;;;;;;;;5136138;27;20023;-77
2022/09/28 14:28:01;;;;;;;9.35;2.15;;;;;;;;;;5122919;27;20030;-77
2022/09/28 14:30:48;;;;;;;4.43;1.90;;;;;;;;;;5138019;27;20019;-79
2022/09/28 14:33:34;;;;;;;6.10;1.92;;;;;;;;;;5136271;27;20034;-77
2022/09/28 14:41:08;;;;;;;4.90;1.90;;;;;;;;;;5137170;27;20042;-77
2022/09/28 14:42:34;;;;;;;3.45;1.70;;;;;;;;;;5136600;27;20011;-75
2022/09/28 14:45:33;;;;;;;3.90;1.48;;;;;;;;;;5121036;27;20027;-77
2022/09/28 14:48:19;;;;;;;6.15;1.70;;;;;;;;;;5135973;27;20049;-77
2022/09/28 14:51:23;;;;;;;7.68;1.95;;;;;;;;;;5136948;27;20051;-76
2022/09/28 14:54:11;;;;;;;11.77;2.70;;;;;;;;;;5135840;27;20066;-76
2022/09/28 14:57:06;;;;;;;8.40;3.55;;;;;;;;;;5135906;27;20405;-76
2022/09/28 14:59:54;;;;;;;3.95;1.80;;;;;;;;;;5122374;27;20034;-76
2022/09/28 15:02:46;;;;;;;6.47;4.10;;;;;;;;;;5135864;27;20023;-76
2022/09/28 15:05:35;;;;;;;7.07;2.50;;;;;;;;;;5136047;27;20034;-76
2022/09/28 15:08:21;;;;;;;4.28;2.00;;;;;;;;;;5134926;27;20458;-77
2022/09/28 15:11:13;;;;;;;5.28;2.70;;;;;;;;;;5136064;27;20027;-76
2022/09/28 15:14:06;;;;;;;3.28;1.67;;;;;;;;;;5119591;27;20119;-76
2022/09/28 15:16:51;;;;;;;6.55;3.28;;;;;;;;;;5136209;27;20019;-76
2022/09/28 15:19:56;;;;;;;5.55;3.55;;;;;;;;;;5137095;27;20369;-76
2022/09/28 15:22:45;;;;;;;5.72;3.67;;;;;;;;;;5135548;27;20027;-76
2022/09/28 15:25:31;;;;;;;7.53;4.43;;;;;;;;;;5135307;27;20019;-76
2022/09/28 15:28:17;;;;;;;7.95;5.10;;;;;;;;;;5135595;27;20097;-77
2022/09/28 15:31:03;;;;;;;5.20;3.08;;;;;;;;;;5119932;27;20030;-76
2022/09/28 15:36:55;;;;;;;5.45;2.22;;;;;;;;;;5135552;27;20023;-76
2022/09/28 15:39:41;;;;;;;8.15;3.30;;;;;;;;;;5121353;27;20176;-77
2022/09/28 15:42:26;;;;;;;5.97;3.63;;;;;;;;;;5119998;27;20337;-76
2022/09/28 15:45:12;;;;;;;11.48;5.35;;;;;;;;;;5135097;27;20410;-77
2022/09/28 15:48:17;;;;;;;8.52;5.00;;;;;;;;;;5120767;27;20102;-77
2022/09/28 15:51:10;;;;;;;19.35;8.65;;;;;;;;;;5135819;27;20080;-76
2022/09/28 15:53:57;;;;;;;20.77;9.50;;;;;;;;;;5134681;27;20073;-76
2022/09/28 15:56:58;;;;;;;12.68;7.88;;;;;;;;;;5135295;27;20034;-77
2022/09/28 15:59:52;;;;;;;12.07;7.43;;;;;;;;;;5135524;27;20015;-77
2022/09/28 16:02:38;;;;;;;17.85;8.30;;;;;;;;;;5135342;27;20389;-77
2022/09/28 16:05:34;;;;;;;13.85;7.45;;;;;;;;;;5119757;27;20109;-76
2022/09/28 16:08:23;;;;;;;10.38;6.50;;;;;;;;;;5135377;27;20020;-76
2022/09/28 16:11:09;;;;;;;14.10;6.95;;;;;;;;;;5119815;27;20034;-76
2022/09/28 16:14:00;;;;;;;13.75;7.00;;;;;;;;;;5135442;27;20071;-76
2022/09/28 16:16:47;;;;;;;11.23;5.68;;;;;;;;;;5135147;27;20084;-76
2022/09/28 16:19:36;;;;;;;17.40;4.72;;;;;;;;;;5118942;27;20310;-76
2022/09/28 16:22:22;;;;;;;10.18;5.82;;;;;;;;;;5134429;27;20525;-76
2022/09/28 16:25:15;;;;;;;20.90;9.52;;;;;;;;;;5119205;27;20037;-77
2022/09/28 16:28:00;;;;;;;13.38;7.80;;;;;;;;;;5134984;27;20019;-76
2022/09/28 16:31:12;;;;;;;13.95;6.53;;;;;;;;;;5121019;27;20011;-76
2022/09/28 16:34:00;;;;;;;17.52;6.82;;;;;;;;;;5134078;27;20102;-76
2022/09/28 16:36:47;;;;;;;17.67;7.25;;;;;;;;;;5134712;27;20022;-74
2022/09/28 16:39:33;;;;;;;18.38;7.82;;;;;;;;;;5119337;28;20023;-75
2022/09/28 16:42:18;;;;;;;22.88;8.02;;;;;;;;;;5134041;28;20353;-77
2022/09/28 16:45:05;;;;;;;38.60;16.88;;;;;;;;;;5134868;28;20077;-77
2022/09/28 16:47:54;;;;;;;38.50;18.67;;;;;;;;;;5134871;28;20057;-77
2022/09/28 16:50:39;;;;;;;60.80;33.63;;;;;;;;;;5134677;28;20519;-76
2022/09/28 16:56:33;;;;;;;65.22;35.25;;;;;;;;;;5134400;28;20031;-76
2022/09/28 16:59:21;;;;;;;59.05;32.97;;;;;;;;;;5135437;28;20054;-76
2022/09/28 17:02:14;;;;;;;51.00;29.67;;;;;;;;;;5135209;28;20023;-77
2022/09/28 17:05:00;;;;;;;39.13;22.92;;;;;;;;;;5134435;28;20027;-76
2022/09/28 17:07:46;;;;;;;36.53;20.17;;;;;;;;;;5134965;28;20023;-76
2022/09/28 17:10:38;;;;;;;47.70;20.35;;;;;;;;;;5136184;28;20045;-77
2022/09/28 17:13:30;;;;;;;31.50;12.43;;;;;;;;;;5156294;28;20031;-75
2022/09/28 17:16:21;;;;;;;29.17;10.70;;;;;;;;;;5136192;28;20099;-75
2022/09/28 17:19:15;;;;;;;25.92;9.65;;;;;;;;;;5135291;28;20042;-76
2022/09/28 17:22:00;;;;;;;24.08;9.48;;;;;;;;;;5120298;28;20031;-76
2022/09/28 17:24:46;;;;;;;26.15;11.02;;;;;;;;;;5135531;28;20107;-77
2022/09/28 17:27:31;;;;;;;29.73;11.38;;;;;;;;;;5135103;28;20019;-76
2022/09/28 17:30:18;;;;;;;29.63;11.23;;;;;;;;;;5122064;27;20106;-76
2022/09/28 17:33:03;;;;;;;26.75;11.20;;;;;;;;;;5125555;27;20051;-75
2022/09/28 17:35:56;;;;;;;32.30;10.68;;;;;;;;;;5139255;27;20076;-76
2022/09/28 17:38:42;;;;;;;26.65;10.77;;;;;;;;;;5138920;27;20019;-77
2022/09/28 17:41:28;;;;;;;22.98;10.80;;;;;;;;;;5139015;27;20034;-76
2022/09/28 17:44:14;;;;;;;30.63;10.88;;;;;;;;;;5151739;27;20051;-76
2022/09/28 17:47:00;;;;;;;27.42;11.38;;;;;;;;;;5159440;27;20042;-76
2022/09/28 17:49:46;;;;;;;25.60;11.38;;;;;;;;;;5144401;27;20009;-74
2022/09/28 17:52:32;;;;;;;22.85;10.65;;;;;;;;;;5158682;27;20007;-75
2022/09/28 17:55:21;;;;;;;27.05;10.75;;;;;;;;;;5140716;27;20043;-75
2022/09/28 17:58:13;;;;;;;26.45;9.55;;;;;;;;;;5155560;27;20076;-76
2022/09/28 18:00:58;;;;;;;20.40;9.25;;;;;;;;;;5154255;27;20038;-75
2022/09/28 18:03:44;;;;;;;19.00;8.55;;;;;;;;;;5151419;27;20096;-76
2022/09/28 18:06:32;;;;;;;22.48;8.65;;;;;;;;;;5145943;27;20015;-76
2022/09/28 18:09:23;;;;;;;17.52;8.05;;;;;;;;;;5138335;27;20443;-75
2022/09/28 18:12:09;;;;;;;17.75;7.63;;;;;;;;;;5137577;27;20031;-73
2022/09/28 18:14:54;;;;;;;33.15;19.45;;;;;;;;;;5137564;27;20102;-71
2022/09/28 18:17:40;;;;;;;48.45;34.03;;;;;;;;;;5137441;27;20019;-71
2022/09/28 18:20:26;;;;;;;17.30;7.47;;;;;;;;;;5137650;27;20503;-72
2022/09/28 18:23:11;;;;;;;13.57;6.45;;;;;;;;;;5122008;27;20023;-72
2022/09/28 18:25:57;;;;;;;11.13;5.95;;;;;;;;;;5137194;27;20026;-72
2022/09/28 18:28:42;;;;;;;12.15;6.50;;;;;;;;;;5121680;27;20110;-71
2022/09/28 18:31:28;;;;;;;14.38;5.90;;;;;;;;;;5121991;27;20428;-71
2022/09/28 18:34:14;;;;;;;18.98;7.13;;;;;;;;;;5135347;27;20451;-72
2022/09/28 18:37:00;;;;;;;16.05;6.57;;;;;;;;;;5136562;27;20110;-71
2022/09/28 18:39:46;;;;;;;11.93;5.97;;;;;;;;;;5136603;27;20051;-71
2022/09/28 18:42:34;;;;;;;8.07;5.40;;;;;;;;;;5122634;27;20031;-71
2022/09/28 18:45:20;;;;;;;13.88;6.28;;;;;;;;;;5135883;27;20037;-71
2022/09/28 18:48:05;;;;;;;17.80;6.38;;;;;;;;;;5136893;27;20023;-72
2022/09/28 18:50:51;;;;;;;15.32;5.82;;;;;;;;;;5135043;27;20019;-72
2022/09/28 18:53:37;;;;;;;13.57;5.30;;;;;;;;;;5135912;27;20050;-71
2022/09/28 18:56:22;;;;;;;10.85;4.93;;;;;;;;;;5136588;27;20341;-71
2022/09/28 18:59:08;;;;;;;11.20;4.80;;;;;;;;;;5136456;27;20080;-71
2022/09/28 19:01:54;;;;;;;14.05;5.20;;;;;;;;;;5136176;27;20019;-71
2022/09/28 19:04:39;;;;;;;12.27;4.50;;;;;;;;;;5135838;27;20047;-72
2022/09/28 19:07:25;;;;;;;8.57;4.25;;;;;;;;;;5136660;27;20019;-72
2022/09/28 19:10:10;;;;;;;7.88;4.30;;;;;;;;;;5121512;27;20042;-72
2022/09/28 19:12:56;;;;;;;8.93;4.47;;;;;;;;;;5136104;27;20082;-71
2022/09/28 19:15:42;;;;;;;11.23;4.57;;;;;;;;;;5135978;27;20023;-71
2022/09/28 19:18:30;;;;;;;11.00;4.30;;;;;;;;;;5120771;27;20057;-72
2022/09/28 19:21:16;;;;;;;11.65;4.47;;;;;;;;;;5135940;27;20079;-72
2022/09/28 19:24:02;;;;;;;11.15;4.30;;;;;;;;;;5135477;27;20046;-73
2022/09/28 19:26:48;;;;;;;6.22;3.97;;;;;;;;;;5136379;27;20019;-72
2022/09/28 19:29:34;;;;;;;28.00;16.45;;;;;;;;;;5135175;27;20015;-73
2022/09/28 19:32:19;;;;;;;44.88;34.17;;;;;;;;;;5136091;27;20035;-73
2022/09/28 19:35:05;;;;;;;9.13;5.53;;;;;;;;;;5135333;27;20034;-73
2022/09/28 19:37:50;;;;;;;7.03;3.97;;;;;;;;;;5119733;27;20019;-71
2022/09/28 19:40:36;;;;;;;7.05;3.60;;;;;;;;;;5135687;27;20091;-73
2022/09/28 19:43:22;;;;;;;8.00;3.78;;;;;;;;;;5135113;27;20051;-72
2022/09/28 19:46:07;;;;;;;9.40;3.33;;;;;;;;;;5135731;27;20385;-74
2022/09/28 19:48:55;;;;;;;5.68;3.35;;;;;;;;;;5135384;27;20023;-72
2022/09/28 19:51:41;;;;;;;7.05;3.50;;;;;;;;;;5136735;27;20106;-73
2022/09/28 19:54:31;;;;;;;11.10;3.33;;;;;;;;;;5133905;27;20047;-72
2022/09/28 19:57:18;;;;;;;9.65;3.78;;;;;;;;;;5121182;27;20107;-73
2022/09/28 20:00:04;;;;;;;7.72;3.60;;;;;;;;;;5120277;27;20061;-72
2022/09/28 20:02:50;;;;;;;10.45;3.47;;;;;;;;;;5134011;27;20391;-72
2022/09/28 20:05:37;;;;;;;9.70;3.10;;;;;;;;;;5134807;27;20032;-72
2022/09/28 20:08:23;;;;;;;7.70;3.40;;;;;;;;;;5134454;27;20019;-71
2022/09/28 20:11:08;;;;;;;6.97;3.20;;;;;;;;;;5134428;27;20050;-73
2022/09/28 20:13:54;;;;;;;8.68;4.22;;;;;;;;;;5135102;27;20509;-71
2022/09/28 20:16:40;;;;;;;10.98;3.60;;;;;;;;;;5134773;27;20041;-71
2022/09/28 20:19:25;;;;;;;11.35;7.05;;;;;;;;;;5135214;27;20023;-73
2022/09/28 20:22:11;;;;;;;11.25;4.65;;;;;;;;;;5134558;27;20030;-72
2022/09/28 20:24:56;;;;;;;10.73;4.53;;;;;;;;;;5119275;27;20110;-72
2022/09/28 20:27:42;;;;;;;6.13;3.60;;;;;;;;;;5120129;27;20019;-72
2022/09/28 20:30:28;;;;;;;8.13;3.95;;;;;;;;;;5134033;27;20015;-72
2022/09/28 20:33:14;;;;;;;8.80;3.90;;;;;;;;;;5134016;27;20033;-73
2022/09/28 20:36:04;;;;;;;6.22;4.15;;;;;;;;;;5119566;27;20031;-73
2022/09/28 20:38:51;;;;;;;8.57;4.40;;;;;;;;;;5134476;27;20062;-72
2022/09/28 20:41:36;;;;;;;7.78;4.60;;;;;;;;;;5119311;28;20023;-73
2022/09/28 20:44:22;;;;;;;8.35;4.53;;;;;;;;;;5134015;28;20019;-72
2022/09/28 20:47:07;;;;;;;6.97;4.13;;;;;;;;;;5134270;28;20019;-73
2022/09/28 20:49:53;;;;;;;10.30;3.88;;;;;;;;;;5133967;28;20054;-72
2022/09/28 20:52:39;;;;;;;8.15;4.10;;;;;;;;;;5134709;28;20020;-72
2022/09/28 20:55:24;;;;;;;6.20;3.55;;;;;;;;;;5113540;28;20445;-72
2022/09/28 20:58:10;;;;;;;8.27;3.35;;;;;;;;;;5116260;28;20039;-73
2022/09/28 21:01:09;;;;;;;8.27;2.92;;;;;;;;;;5116830;28;20180;-72
2022/09/28 21:03:56;;;;;;;8.10;2.97;;;;;;;;;;5113794;28;20023;-72
2022/09/28 21:06:42;;;;;;;5.47;2.70;;;;;;;;;;5118008;28;20019;-72
2022/09/28 21:09:29;;;;;;;4.15;2.50;;;;;;;;;;5103034;28;20015;-73
2022/09/28 21:12:15;;;;;;;3.75;2.40;;;;;;;;;;5116682;28;20023;-73
2022/09/28 21:15:00;;;;;;;5.95;2.72;;;;;;;;;;5117896;28;20032;-72
2022/09/28 21:17:46;;;;;;;3.67;2.28;;;;;;;;;;5119672;27;20114;-72
2022/09/28 21:20:32;;;;;;;5.68;2.42;;;;;;;;;;5121236;28;20118;-74
2022/09/28 21:23:18;;;;;;;8.45;2.70;;;;;;;;;;5124159;28;20035;-72
2022/09/28 21:26:05;;;;;;;4.45;2.20;;;;;;;;;;5118328;28;20163;-75
2022/09/28 21:28:55;;;;;;;5.10;2.40;;;;;;;;;;5123879;28;20055;-75
2022/09/28 21:31:44;;;;;;;7.18;2.22;;;;;;;;;;5126850;28;20091;-78
2022/09/28 21:34:29;;;;;;;5.72;2.20;;;;;;;;;;5126962;28;20100;-74
2022/09/28 21:37:15;;;;;;;6.78;2.10;;;;;;;;;;5127483;28;20460;-78
2022/09/28 21:40:04;;;;;;;4.55;2.13;;;;;;;;;;5124698;28;20023;-77
2022/09/28 21:42:50;;;;;;;6.10;2.15;;;;;;;;;;5129223;28;20055;-75
2022/09/28 21:45:37;;;;;;;5.55;2.30;;;;;;;;;;5121904;28;20148;-75
2022/09/28 21:48:24;;;;;;;4.03;1.83;;;;;;;;;;5130118;28;20023;-75
2022/09/28 21:51:12;;;;;;;4.70;2.05;;;;;;;;;;5128437;28;20471;-75
2022/09/28 21:53:57;;;;;;;5.30;2.13;;;;;;;;;;5133239;27;20082;-75
2022/09/28 21:56:43;;;;;;;5.97;2.13;;;;;;;;;;5143763;27;20027;-75
2022/09/28 21:59:29;;;;;;;3.00;2.00;;;;;;;;;;5141493;27;20034;-76
2022/09/28 22:02:14;;;;;;;4.03;1.90;;;;;;;;;;5131369;27;20364;-76
2022/09/28 22:05:00;;;;;;;5.05;2.20;;;;;;;;;;5146535;27;20015;-73
2022/09/28 22:07:45;;;;;;;5.32;2.50;;;;;;;;;;5154524;27;20082;-74
2022/09/28 22:10:31;;;;;;;5.28;2.10;;;;;;;;;;5153416;27;20039;-74
2022/09/28 22:13:17;;;;;;;6.25;2.22;;;;;;;;;;5148383;27;20019;-74
2022/09/28 22:16:02;;;;;;;4.85;1.90;;;;;;;;;;5147190;27;20483;-74
2022/09/28 22:18:48;;;;;;;3.67;2.25;;;;;;;;;;5149385;27;20035;-75
2022/09/28 22:21:34;;;;;;;3.10;2.08;;;;;;;;;;5148063;27;20046;-75
2022/09/28 22:24:19;;;;;;;3.65;2.30;;;;;;;;;;5147542;27;20023;-75
2022/09/28 22:27:05;;;;;;;6.18;2.20;;;;;;;;;;5144276;27;20089;-75
2022/09/28 22:29:50;;;;;;;3.83;2.22;;;;;;;;;;5139852;27;20452;-74
2022/09/28 22:32:36;;;;;;;5.18;2.60;;;;;;;;;;5140488;27;20077;-75
2022/09/28 22:35:22;;;;;;;5.28;2.25;;;;;;;;;;5141099;27;20500;-74
2022/09/28 22:38:07;;;;;;;4.38;2.42;;;;;;;;;;5143815;27;20092;-74
2022/09/28 22:40:54;;;;;;;4.72;2.58;;;;;;;;;;5142202;27;20090;-75